sensor_id;sensor_type;location;lat;lon;timestamp;P1;durP1;ratioP1;P2;durP2;ratioP2
12059;SDS011;6091;51.432;6.880;2023-01-26T00:01:21;2.80;;;2.60;;
12059;SDS011;6091;51.432;6.880;2023-01-26T00:03:54;2.60;;;2.40;;
12059;SDS011;6091;51.432;6.880;2023-01-26T00:06:22;3.08;;;2.88;;
12059;SDS011;6091;51.432;6.880;2023-01-26T00:08:51;2.97;;;2.70;;
12059;SDS011;6091;51.432;6.880;2023-01-26T00:11:23;2.88;;;2.67;;
12059;SDS011;6091;51.432;6.880;2023-01-26T00:13:52;2.92;;;2.70;;
12059;SDS011;6091;51.432;6.880;2023-01-26T00:16:20;2.88;;;2.67;;
12059;SDS011;6091;51.432;6.880;2023-01-26T00:18:49;2.97;;;2.78;;
12059;SDS011;6091;51.432;6.880;2023-01-26T00:21:17;2.80;;;2.60;;
12059;SDS011;6091;51.432;6.880;2023-01-26T00:23:47;3.00;;;2.70;;
12059;SDS011;6091;51.432;6.880;2023-01-26T00:26:17;2.85;;;2.65;;
12059;SDS011;6091;51.432;6.880;2023-01-26T00:28:50;3.10;;;2.80;;
12059;SDS011;6091;51.432;6.880;2023-01-26T00:31:22;2.70;;;2.50;;
12059;SDS011;6091;51.432;6.880;2023-01-26T00:33:52;2.90;;;2.67;;
12059;SDS011;6091;51.432;6.880;2023-01-26T00:36:20;2.75;;;2.55;;
12059;SDS011;6091;51.432;6.880;2023-01-26T00:38:48;2.80;;;2.60;;
12059;SDS011;6091;51.432;6.880;2023-01-26T00:41:15;2.80;;;2.60;;
12059;SDS011;6091;51.432;6.880;2023-01-26T00:44:01;3.00;;;2.80;;
12059;SDS011;6091;51.432;6.880;2023-01-26T00:46:28;2.70;;;2.50;;
12059;SDS011;6091;51.432;6.880;2023-01-26T00:48:56;2.72;;;2.53;;
12059;SDS011;6091;51.432;6.880;2023-01-26T00:51:26;2.90;;;2.70;;
12059;SDS011;6091;51.432;6.880;2023-01-26T00:53:53;2.88;;;2.67;;
12059;SDS011;6091;51.432;6.880;2023-01-26T00:56:20;2.63;;;2.42;;
12059;SDS011;6091;51.432;6.880;2023-01-26T00:58:47;3.10;;;2.80;;
12059;SDS011;6091;51.432;6.880;2023-01-26T01:01:14;3.00;;;2.80;;
12059;SDS011;6091;51.432;6.880;2023-01-26T01:03:41;3.10;;;2.90;;
12059;SDS011;6091;51.432;6.880;2023-01-26T01:06:08;2.72;;;2.53;;
12059;SDS011;6091;51.432;6.880;2023-01-26T01:08:35;2.97;;;2.75;;
12059;SDS011;6091;51.432;6.880;2023-01-26T01:11:06;2.95;;;2.70;;
12059;SDS011;6091;51.432;6.880;2023-01-26T01:13:36;2.67;;;2.47;;
12059;SDS011;6091;51.432;6.880;2023-01-26T01:16:09;2.97;;;2.78;;
12059;SDS011;6091;51.432;6.880;2023-01-26T01:18:38;2.55;;;2.35;;
12059;SDS011;6091;51.432;6.880;2023-01-26T01:21:06;3.05;;;2.85;;
12059;SDS011;6091;51.432;6.880;2023-01-26T01:23:40;3.15;;;2.92;;
12059;SDS011;6091;51.432;6.880;2023-01-26T01:26:08;3.42;;;3.13;;
12059;SDS011;6091;51.432;6.880;2023-01-26T01:28:36;3.25;;;2.95;;
12059;SDS011;6091;51.432;6.880;2023-01-26T01:31:06;2.95;;;2.75;;
12059;SDS011;6091;51.432;6.880;2023-01-26T01:33:36;2.78;;;2.58;;
12059;SDS011;6091;51.432;6.880;2023-01-26T01:36:05;2.75;;;2.55;;
12059;SDS011;6091;51.432;6.880;2023-01-26T01:38:36;3.15;;;2.85;;
12059;SDS011;6091;51.432;6.880;2023-01-26T01:41:03;3.08;;;2.78;;
12059;SDS011;6091;51.432;6.880;2023-01-26T01:43:31;2.95;;;2.72;;
12059;SDS011;6091;51.432;6.880;2023-01-26T01:45:59;3.00;;;2.75;;
12059;SDS011;6091;51.432;6.880;2023-01-26T01:51:56;3.10;;;2.90;;
12059;SDS011;6091;51.432;6.880;2023-01-26T01:54:22;3.00;;;2.80;;
12059;SDS011;6091;51.432;6.880;2023-01-26T01:57:01;2.90;;;2.70;;
12059;SDS011;6091;51.432;6.880;2023-01-26T01:59:44;2.80;;;2.60;;
12059;SDS011;6091;51.432;6.880;2023-01-26T02:02:20;2.75;;;2.40;;
12059;SDS011;6091;51.432;6.880;2023-01-26T02:04:47;2.55;;;2.35;;
12059;SDS011;6091;51.432;6.880;2023-01-26T02:07:14;2.72;;;2.53;;
12059;SDS011;6091;51.432;6.880;2023-01-26T02:09:41;2.70;;;2.50;;
12059;SDS011;6091;51.432;6.880;2023-01-26T02:12:29;2.80;;;2.60;;
12059;SDS011;6091;51.432;6.880;2023-01-26T02:14:58;2.85;;;2.65;;
12059;SDS011;6091;51.432;6.880;2023-01-26T02:17:27;2.53;;;2.33;;
12059;SDS011;6091;51.432;6.880;2023-01-26T02:23:08;3.00;;;2.80;;
12059;SDS011;6091;51.432;6.880;2023-01-26T02:25:39;3.13;;;2.83;;
12059;SDS011;6091;51.432;6.880;2023-01-26T02:28:17;2.90;;;2.60;;
12059;SDS011;6091;51.432;6.880;2023-01-26T02:30:49;2.97;;;2.78;;
12059;SDS011;6091;51.432;6.880;2023-01-26T02:33:19;2.83;;;2.63;;
12059;SDS011;6091;51.432;6.880;2023-01-26T02:35:52;3.42;;;3.13;;
12059;SDS011;6091;51.432;6.880;2023-01-26T02:38:20;2.97;;;2.75;;
12059;SDS011;6091;51.432;6.880;2023-01-26T02:40:58;2.78;;;2.58;;
12059;SDS011;6091;51.432;6.880;2023-01-26T02:43:35;3.00;;;2.80;;
12059;SDS011;6091;51.432;6.880;2023-01-26T02:46:03;2.70;;;2.50;;
12059;SDS011;6091;51.432;6.880;2023-01-26T02:48:31;3.05;;;2.75;;
12059;SDS011;6091;51.432;6.880;2023-01-26T02:51:17;2.78;;;2.58;;
12059;SDS011;6091;51.432;6.880;2023-01-26T02:53:44;2.97;;;2.67;;
12059;SDS011;6091;51.432;6.880;2023-01-26T02:56:11;2.97;;;2.78;;
12059;SDS011;6091;51.432;6.880;2023-01-26T02:58:37;3.08;;;2.78;;
12059;SDS011;6091;51.432;6.880;2023-01-26T03:01:05;2.67;;;2.47;;
12059;SDS011;6091;51.432;6.880;2023-01-26T03:03:32;2.63;;;2.42;;
12059;SDS011;6091;51.432;6.880;2023-01-26T03:06:08;2.75;;;2.53;;
12059;SDS011;6091;51.432;6.880;2023-01-26T03:08:37;2.67;;;2.47;;
12059;SDS011;6091;51.432;6.880;2023-01-26T03:11:05;2.92;;;2.63;;
12059;SDS011;6091;51.432;6.880;2023-01-26T03:13:34;2.75;;;2.55;;
12059;SDS011;6091;51.432;6.880;2023-01-26T03:16:01;2.92;;;2.65;;
12059;SDS011;6091;51.432;6.880;2023-01-26T03:18:33;3.05;;;2.75;;
12059;SDS011;6091;51.432;6.880;2023-01-26T03:21:20;2.78;;;2.58;;
12059;SDS011;6091;51.432;6.880;2023-01-26T03:24:08;2.67;;;2.47;;
12059;SDS011;6091;51.432;6.880;2023-01-26T03:26:57;2.67;;;2.47;;
12059;SDS011;6091;51.432;6.880;2023-01-26T03:29:43;3.10;;;2.80;;
12059;SDS011;6091;51.432;6.880;2023-01-26T03:32:11;2.97;;;2.70;;
12059;SDS011;6091;51.432;6.880;2023-01-26T03:34:38;2.65;;;2.45;;
12059;SDS011;6091;51.432;6.880;2023-01-26T03:37:05;2.08;;;1.95;;
12059;SDS011;6091;51.432;6.880;2023-01-26T03:39:32;2.72;;;2.53;;
12059;SDS011;6091;51.432;6.880;2023-01-26T03:42:18;2.83;;;2.50;;
12059;SDS011;6091;51.432;6.880;2023-01-26T03:45:04;2.55;;;2.35;;
12059;SDS011;6091;51.432;6.880;2023-01-26T03:47:50;2.60;;;2.40;;
12059;SDS011;6091;51.432;6.880;2023-01-26T03:50:36;2.63;;;2.42;;
12059;SDS011;6091;51.432;6.880;2023-01-26T03:53:22;2.72;;;2.53;;
12059;SDS011;6091;51.432;6.880;2023-01-26T03:56:09;2.78;;;2.58;;
12059;SDS011;6091;51.432;6.880;2023-01-26T04:01:22;2.42;;;2.22;;
12059;SDS011;6091;51.432;6.880;2023-01-26T04:03:53;2.28;;;2.08;;
12059;SDS011;6091;51.432;6.880;2023-01-26T04:06:42;2.78;;;2.58;;
12059;SDS011;6091;51.432;6.880;2023-01-26T04:09:30;2.70;;;2.50;;
12059;SDS011;6091;51.432;6.880;2023-01-26T04:11:58;2.33;;;2.13;;
12059;SDS011;6091;51.432;6.880;2023-01-26T04:14:25;2.45;;;2.25;;
12059;SDS011;6091;51.432;6.880;2023-01-26T04:17:15;2.38;;;2.03;;
12059;SDS011;6091;51.432;6.880;2023-01-26T04:20:02;2.55;;;2.35;;
12059;SDS011;6091;51.432;6.880;2023-01-26T04:22:49;2.22;;;2.03;;
12059;SDS011;6091;51.432;6.880;2023-01-26T04:25:17;2.20;;;2.03;;
12059;SDS011;6091;51.432;6.880;2023-01-26T04:27:46;2.30;;;2.10;;
12059;SDS011;6091;51.432;6.880;2023-01-26T04:30:13;2.50;;;2.30;;
12059;SDS011;6091;51.432;6.880;2023-01-26T04:32:41;2.20;;;1.98;;
12059;SDS011;6091;51.432;6.880;2023-01-26T04:35:09;2.20;;;2.00;;
12059;SDS011;6091;51.432;6.880;2023-01-26T04:37:36;1.98;;;1.88;;
12059;SDS011;6091;51.432;6.880;2023-01-26T04:40:04;1.88;;;1.77;;
12059;SDS011;6091;51.432;6.880;2023-01-26T04:42:33;2.15;;;2.03;;
12059;SDS011;6091;51.432;6.880;2023-01-26T04:45:00;2.20;;;2.03;;
12059;SDS011;6091;51.432;6.880;2023-01-26T04:47:27;2.05;;;1.88;;
12059;SDS011;6091;51.432;6.880;2023-01-26T04:49:54;2.25;;;2.05;;
12059;SDS011;6091;51.432;6.880;2023-01-26T04:52:21;2.58;;;2.38;;
12059;SDS011;6091;51.432;6.880;2023-01-26T04:54:48;2.20;;;2.00;;
12059;SDS011;6091;51.432;6.880;2023-01-26T04:57:15;1.90;;;1.80;;
12059;SDS011;6091;51.432;6.880;2023-01-26T04:59:45;2.30;;;2.10;;
12059;SDS011;6091;51.432;6.880;2023-01-26T05:02:12;2.22;;;2.03;;
12059;SDS011;6091;51.432;6.880;2023-01-26T05:04:39;2.15;;;1.95;;
12059;SDS011;6091;51.432;6.880;2023-01-26T05:07:06;2.17;;;1.98;;
12059;SDS011;6091;51.432;6.880;2023-01-26T05:09:33;2.65;;;2.45;;
12059;SDS011;6091;51.432;6.880;2023-01-26T05:12:00;2.40;;;2.20;;
12059;SDS011;6091;51.432;6.880;2023-01-26T05:14:47;2.40;;;2.20;;
12059;SDS011;6091;51.432;6.880;2023-01-26T05:17:14;2.35;;;2.15;;
12059;SDS011;6091;51.432;6.880;2023-01-26T05:19:41;2.58;;;2.38;;
12059;SDS011;6091;51.432;6.880;2023-01-26T05:22:08;2.40;;;2.20;;
12059;SDS011;6091;51.432;6.880;2023-01-26T05:24:37;2.53;;;2.33;;
12059;SDS011;6091;51.432;6.880;2023-01-26T05:27:04;2.20;;;2.00;;
12059;SDS011;6091;51.432;6.880;2023-01-26T05:29:46;2.15;;;1.95;;
12059;SDS011;6091;51.432;6.880;2023-01-26T05:32:17;1.83;;;1.73;;
12059;SDS011;6091;51.432;6.880;2023-01-26T05:34:44;2.20;;;2.00;;
12059;SDS011;6091;51.432;6.880;2023-01-26T05:37:12;2.20;;;2.05;;
12059;SDS011;6091;51.432;6.880;2023-01-26T05:39:40;2.30;;;2.10;;
12059;SDS011;6091;51.432;6.880;2023-01-26T05:42:07;2.05;;;1.90;;
12059;SDS011;6091;51.432;6.880;2023-01-26T05:44:36;1.85;;;1.65;;
12059;SDS011;6091;51.432;6.880;2023-01-26T05:47:03;1.90;;;1.80;;
12059;SDS011;6091;51.432;6.880;2023-01-26T05:49:31;1.75;;;1.65;;
12059;SDS011;6091;51.432;6.880;2023-01-26T05:51:58;1.83;;;1.73;;
12059;SDS011;6091;51.432;6.880;2023-01-26T05:54:25;2.00;;;1.90;;
12059;SDS011;6091;51.432;6.880;2023-01-26T05:56:51;2.20;;;2.00;;
12059;SDS011;6091;51.432;6.880;2023-01-26T05:59:18;2.30;;;2.10;;
12059;SDS011;6091;51.432;6.880;2023-01-26T06:01:45;1.83;;;1.73;;
12059;SDS011;6091;51.432;6.880;2023-01-26T06:04:12;2.05;;;1.92;;
12059;SDS011;6091;51.432;6.880;2023-01-26T06:06:39;1.77;;;1.67;;
12059;SDS011;6091;51.432;6.880;2023-01-26T06:09:06;2.25;;;2.05;;
12059;SDS011;6091;51.432;6.880;2023-01-26T06:11:33;1.90;;;1.80;;
12059;SDS011;6091;51.432;6.880;2023-01-26T06:14:00;1.83;;;1.73;;
12059;SDS011;6091;51.432;6.880;2023-01-26T06:16:28;2.28;;;2.08;;
12059;SDS011;6091;51.432;6.880;2023-01-26T06:18:55;2.20;;;2.00;;
12059;SDS011;6091;51.432;6.880;2023-01-26T06:21:22;2.08;;;1.88;;
12059;SDS011;6091;51.432;6.880;2023-01-26T06:23:49;1.77;;;1.67;;
12059;SDS011;6091;51.432;6.880;2023-01-26T06:26:16;2.05;;;1.95;;
12059;SDS011;6091;51.432;6.880;2023-01-26T06:28:43;2.30;;;2.10;;
12059;SDS011;6091;51.432;6.880;2023-01-26T06:31:10;1.98;;;1.83;;
12059;SDS011;6091;51.432;6.880;2023-01-26T06:33:38;2.40;;;2.20;;
12059;SDS011;6091;51.432;6.880;2023-01-26T06:36:07;1.67;;;1.58;;
12059;SDS011;6091;51.432;6.880;2023-01-26T06:38:38;1.70;;;1.60;;
12059;SDS011;6091;51.432;6.880;2023-01-26T06:41:10;1.70;;;1.60;;
12059;SDS011;6091;51.432;6.880;2023-01-26T06:43:38;1.48;;;1.38;;
12059;SDS011;6091;51.432;6.880;2023-01-26T06:46:04;1.75;;;1.65;;
12059;SDS011;6091;51.432;6.880;2023-01-26T06:48:33;1.58;;;1.48;;
12059;SDS011;6091;51.432;6.880;2023-01-26T06:54:23;1.63;;;1.52;;
12059;SDS011;6091;51.432;6.880;2023-01-26T06:56:50;1.60;;;1.50;;
12059;SDS011;6091;51.432;6.880;2023-01-26T06:59:17;1.50;;;1.40;;
12059;SDS011;6091;51.432;6.880;2023-01-26T07:01:45;1.77;;;1.67;;
12059;SDS011;6091;51.432;6.880;2023-01-26T07:04:14;1.60;;;1.50;;
12059;SDS011;6091;51.432;6.880;2023-01-26T07:06:42;2.17;;;1.98;;
12059;SDS011;6091;51.432;6.880;2023-01-26T07:09:09;2.72;;;1.85;;
12059;SDS011;6091;51.432;6.880;2023-01-26T07:11:36;3.92;;;1.77;;
12059;SDS011;6091;51.432;6.880;2023-01-26T07:14:04;3.00;;;1.50;;
12059;SDS011;6091;51.432;6.880;2023-01-26T07:16:31;3.28;;;1.80;;
12059;SDS011;6091;51.432;6.880;2023-01-26T07:18:59;3.08;;;2.25;;
12059;SDS011;6091;51.432;6.880;2023-01-26T07:21:26;3.08;;;2.67;;
12059;SDS011;6091;51.432;6.880;2023-01-26T07:23:54;2.42;;;2.20;;
12059;SDS011;6091;51.432;6.880;2023-01-26T07:26:21;2.40;;;2.20;;
12059;SDS011;6091;51.432;6.880;2023-01-26T07:28:48;2.97;;;2.17;;
12059;SDS011;6091;51.432;6.880;2023-01-26T07:31:15;2.33;;;2.13;;
12059;SDS011;6091;51.432;6.880;2023-01-26T07:33:43;2.10;;;2.00;;
12059;SDS011;6091;51.432;6.880;2023-01-26T07:36:09;3.00;;;2.50;;
12059;SDS011;6091;51.432;6.880;2023-01-26T07:38:36;2.78;;;2.28;;
12059;SDS011;6091;51.432;6.880;2023-01-26T07:41:04;2.30;;;2.10;;
12059;SDS011;6091;51.432;6.880;2023-01-26T07:43:35;2.20;;;2.00;;
12059;SDS011;6091;51.432;6.880;2023-01-26T07:46:03;3.10;;;2.30;;
12059;SDS011;6091;51.432;6.880;2023-01-26T07:48:31;2.75;;;2.10;;
12059;SDS011;6091;51.432;6.880;2023-01-26T07:51:00;2.42;;;2.22;;
12059;SDS011;6091;51.432;6.880;2023-01-26T07:53:29;2.25;;;1.83;;
12059;SDS011;6091;51.432;6.880;2023-01-26T07:56:09;1.80;;;1.70;;
12059;SDS011;6091;51.432;6.880;2023-01-26T07:58:36;1.85;;;1.75;;
12059;SDS011;6091;51.432;6.880;2023-01-26T08:03:36;2.97;;;2.60;;
12059;SDS011;6091;51.432;6.880;2023-01-26T08:06:04;4.53;;;3.00;;
12059;SDS011;6091;51.432;6.880;2023-01-26T08:08:37;3.13;;;2.67;;
12059;SDS011;6091;51.432;6.880;2023-01-26T08:11:08;3.40;;;2.72;;
12059;SDS011;6091;51.432;6.880;2023-01-26T08:13:36;2.97;;;2.58;;
12059;SDS011;6091;51.432;6.880;2023-01-26T08:16:04;2.10;;;1.90;;
12059;SDS011;6091;51.432;6.880;2023-01-26T08:18:41;2.40;;;2.17;;
12059;SDS011;6091;51.432;6.880;2023-01-26T08:21:12;2.22;;;2.03;;
12059;SDS011;6091;51.432;6.880;2023-01-26T08:23:42;2.60;;;2.22;;
12059;SDS011;6091;51.432;6.880;2023-01-26T08:26:10;3.45;;;2.35;;
12059;SDS011;6091;51.432;6.880;2023-01-26T08:28:39;5.95;;;3.00;;
12059;SDS011;6091;51.432;6.880;2023-01-26T08:31:10;5.53;;;2.45;;
12059;SDS011;6091;51.432;6.880;2023-01-26T08:33:46;2.75;;;1.90;;
12059;SDS011;6091;51.432;6.880;2023-01-26T08:36:19;3.53;;;2.42;;
12059;SDS011;6091;51.432;6.880;2023-01-26T08:38:48;3.15;;;2.75;;
12059;SDS011;6091;51.432;6.880;2023-01-26T08:41:17;3.95;;;2.00;;
12059;SDS011;6091;51.432;6.880;2023-01-26T08:43:44;5.45;;;2.40;;
12059;SDS011;6091;51.432;6.880;2023-01-26T08:46:12;2.65;;;2.08;;
12059;SDS011;6091;51.432;6.880;2023-01-26T08:48:40;4.43;;;2.15;;
12059;SDS011;6091;51.432;6.880;2023-01-26T08:51:07;3.92;;;2.80;;
12059;SDS011;6091;51.432;6.880;2023-01-26T08:53:34;4.82;;;3.00;;
12059;SDS011;6091;51.432;6.880;2023-01-26T08:56:03;3.00;;;2.80;;
12059;SDS011;6091;51.432;6.880;2023-01-26T08:58:32;3.55;;;2.65;;
12059;SDS011;6091;51.432;6.880;2023-01-26T09:01:04;2.60;;;2.40;;
12059;SDS011;6091;51.432;6.880;2023-01-26T09:03:33;2.83;;;2.30;;
12059;SDS011;6091;51.432;6.880;2023-01-26T09:06:01;4.40;;;2.60;;
12059;SDS011;6091;51.432;6.880;2023-01-26T09:08:30;2.92;;;2.28;;
12059;SDS011;6091;51.432;6.880;2023-01-26T09:10:57;4.65;;;2.20;;
12059;SDS011;6091;51.432;6.880;2023-01-26T09:13:24;2.67;;;2.20;;
12059;SDS011;6091;51.432;6.880;2023-01-26T09:15:52;2.83;;;2.53;;
12059;SDS011;6091;51.432;6.880;2023-01-26T09:18:19;4.32;;;2.00;;
12059;SDS011;6091;51.432;6.880;2023-01-26T09:20:46;2.05;;;1.92;;
12059;SDS011;6091;51.432;6.880;2023-01-26T09:23:12;3.20;;;2.53;;
12059;SDS011;6091;51.432;6.880;2023-01-26T09:25:42;3.13;;;2.17;;
12059;SDS011;6091;51.432;6.880;2023-01-26T09:28:09;2.97;;;2.30;;
12059;SDS011;6091;51.432;6.880;2023-01-26T09:30:36;2.28;;;2.08;;
12059;SDS011;6091;51.432;6.880;2023-01-26T09:33:03;6.05;;;1.92;;
12059;SDS011;6091;51.432;6.880;2023-01-26T09:35:32;1.92;;;1.83;;
12059;SDS011;6091;51.432;6.880;2023-01-26T09:37:58;2.50;;;2.10;;
12059;SDS011;6091;51.432;6.880;2023-01-26T09:43:03;1.70;;;1.60;;
12059;SDS011;6091;51.432;6.880;2023-01-26T09:45:55;2.58;;;1.92;;
12059;SDS011;6091;51.432;6.880;2023-01-26T09:49:27;3.30;;;1.75;;
12059;SDS011;6091;51.432;6.880;2023-01-26T09:52:11;1.77;;;1.65;;
12059;SDS011;6091;51.432;6.880;2023-01-26T09:54:59;1.92;;;1.75;;
12059;SDS011;6091;51.432;6.880;2023-01-26T09:57:33;2.03;;;1.85;;
12059;SDS011;6091;51.432;6.880;2023-01-26T10:00:33;2.13;;;1.80;;
12059;SDS011;6091;51.432;6.880;2023-01-26T10:03:17;1.88;;;1.77;;
12059;SDS011;6091;51.432;6.880;2023-01-26T10:08:48;1.73;;;1.55;;
12059;SDS011;6091;51.432;6.880;2023-01-26T10:13:53;3.78;;;2.22;;
12059;SDS011;6091;51.432;6.880;2023-01-26T10:16:32;1.80;;;1.67;;
12059;SDS011;6091;51.432;6.880;2023-01-26T10:19:33;1.65;;;1.55;;
12059;SDS011;6091;51.432;6.880;2023-01-26T10:22:12;3.40;;;1.52;;
12059;SDS011;6091;51.432;6.880;2023-01-26T10:24:50;2.45;;;1.60;;
12059;SDS011;6091;51.432;6.880;2023-01-26T10:27:19;3.75;;;1.80;;
12059;SDS011;6091;51.432;6.880;2023-01-26T10:29:46;1.70;;;1.52;;
12059;SDS011;6091;51.432;6.880;2023-01-26T10:32:13;2.08;;;1.50;;
12059;SDS011;6091;51.432;6.880;2023-01-26T10:34:47;3.00;;;1.73;;
12059;SDS011;6091;51.432;6.880;2023-01-26T10:37:20;1.50;;;1.40;;
12059;SDS011;6091;51.432;6.880;2023-01-26T10:42:29;1.67;;;1.30;;
12059;SDS011;6091;51.432;6.880;2023-01-26T10:45:00;1.40;;;1.30;;
12059;SDS011;6091;51.432;6.880;2023-01-26T10:47:32;2.28;;;1.38;;
12059;SDS011;6091;51.432;6.880;2023-01-26T10:53:01;1.35;;;1.25;;
12059;SDS011;6091;51.432;6.880;2023-01-26T10:55:31;1.42;;;1.33;;
12059;SDS011;6091;51.432;6.880;2023-01-26T10:58:01;1.30;;;1.20;;
12059;SDS011;6091;51.432;6.880;2023-01-26T11:00:32;1.30;;;1.20;;
12059;SDS011;6091;51.432;6.880;2023-01-26T11:03:07;1.20;;;1.10;;
12059;SDS011;6091;51.432;6.880;2023-01-26T11:05:44;1.52;;;1.23;;
12059;SDS011;6091;51.432;6.880;2023-01-26T11:08:32;1.30;;;1.20;;
12059;SDS011;6091;51.432;6.880;2023-01-26T11:11:05;1.40;;;1.30;;
12059;SDS011;6091;51.432;6.880;2023-01-26T11:13:46;1.30;;;1.17;;
12059;SDS011;6091;51.432;6.880;2023-01-26T11:16:45;2.17;;;1.45;;
12059;SDS011;6091;51.432;6.880;2023-01-26T11:22:04;2.55;;;1.20;;
12059;SDS011;6091;51.432;6.880;2023-01-26T11:24:41;1.55;;;1.45;;
12059;SDS011;6091;51.432;6.880;2023-01-26T11:27:25;1.00;;;0.90;;
12059;SDS011;6091;51.432;6.880;2023-01-26T11:33:41;1.67;;;1.10;;
12059;SDS011;6091;51.432;6.880;2023-01-26T11:36:58;5.30;;;1.20;;
12059;SDS011;6091;51.432;6.880;2023-01-26T11:39:41;4.47;;;1.38;;
12059;SDS011;6091;51.432;6.880;2023-01-26T11:42:24;5.70;;;1.42;;
12059;SDS011;6091;51.432;6.880;2023-01-26T11:48:37;2.53;;;1.25;;
12059;SDS011;6091;51.432;6.880;2023-01-26T11:59:54;2.60;;;1.27;;
12059;SDS011;6091;51.432;6.880;2023-01-26T12:02:32;3.10;;;1.20;;
12059;SDS011;6091;51.432;6.880;2023-01-26T12:05:22;1.40;;;0.98;;
12059;SDS011;6091;51.432;6.880;2023-01-26T12:10:36;2.75;;;1.38;;
12059;SDS011;6091;51.432;6.880;2023-01-26T12:13:34;4.28;;;1.70;;
12059;SDS011;6091;51.432;6.880;2023-01-26T12:16:16;1.88;;;1.52;;
12059;SDS011;6091;51.432;6.880;2023-01-26T12:24:54;1.42;;;1.33;;
12059;SDS011;6091;51.432;6.880;2023-01-26T12:28:07;3.60;;;1.50;;
12059;SDS011;6091;51.432;6.880;2023-01-26T12:31:14;2.65;;;1.15;;
12059;SDS011;6091;51.432;6.880;2023-01-26T12:33:54;1.55;;;1.45;;
12059;SDS011;6091;51.432;6.880;2023-01-26T12:36:27;2.40;;;1.60;;
12059;SDS011;6091;51.432;6.880;2023-01-26T12:45:50;3.33;;;1.27;;
12059;SDS011;6091;51.432;6.880;2023-01-26T12:48:15;3.85;;;1.40;;
12059;SDS011;6091;51.432;6.880;2023-01-26T12:50:53;1.83;;;1.48;;
12059;SDS011;6091;51.432;6.880;2023-01-26T12:53:31;1.23;;;1.13;;
12059;SDS011;6091;51.432;6.880;2023-01-26T12:56:24;6.63;;;1.50;;
12059;SDS011;6091;51.432;6.880;2023-01-26T12:59:08;3.13;;;1.65;;
12059;SDS011;6091;51.432;6.880;2023-01-26T13:04:58;2.65;;;1.63;;
12059;SDS011;6091;51.432;6.880;2023-01-26T13:07:29;2.17;;;1.40;;
12059;SDS011;6091;51.432;6.880;2023-01-26T13:10:08;2.00;;;1.40;;
12059;SDS011;6091;51.432;6.880;2023-01-26T13:12:47;3.72;;;1.60;;
12059;SDS011;6091;51.432;6.880;2023-01-26T13:15:26;1.70;;;1.60;;
12059;SDS011;6091;51.432;6.880;2023-01-26T13:17:58;2.75;;;1.50;;
12059;SDS011;6091;51.432;6.880;2023-01-26T13:20:46;3.03;;;1.70;;
12059;SDS011;6091;51.432;6.880;2023-01-26T13:26:12;2.55;;;1.38;;
12059;SDS011;6091;51.432;6.880;2023-01-26T13:28:42;2.28;;;1.83;;
12059;SDS011;6091;51.432;6.880;2023-01-26T13:31:11;3.05;;;2.20;;
12059;SDS011;6091;51.432;6.880;2023-01-26T13:33:39;3.47;;;2.22;;
12059;SDS011;6091;51.432;6.880;2023-01-26T13:36:14;2.30;;;1.73;;
12059;SDS011;6091;51.432;6.880;2023-01-26T13:38:51;3.45;;;1.60;;
12059;SDS011;6091;51.432;6.880;2023-01-26T13:41:26;4.80;;;1.73;;
12059;SDS011;6091;51.432;6.880;2023-01-26T13:44:07;4.55;;;2.08;;
12059;SDS011;6091;51.432;6.880;2023-01-26T13:46:44;2.38;;;1.80;;
12059;SDS011;6091;51.432;6.880;2023-01-26T13:49:37;2.28;;;1.40;;
12059;SDS011;6091;51.432;6.880;2023-01-26T13:52:17;1.60;;;1.35;;
12059;SDS011;6091;51.432;6.880;2023-01-26T13:54:48;1.40;;;1.30;;
12059;SDS011;6091;51.432;6.880;2023-01-26T13:57:21;2.28;;;1.20;;
12059;SDS011;6091;51.432;6.880;2023-01-26T13:59:53;1.63;;;1.20;;
12059;SDS011;6091;51.432;6.880;2023-01-26T14:05:01;4.85;;;1.65;;
12059;SDS011;6091;51.432;6.880;2023-01-26T14:07:37;1.63;;;1.40;;
12059;SDS011;6091;51.432;6.880;2023-01-26T14:10:07;1.40;;;1.30;;
12059;SDS011;6091;51.432;6.880;2023-01-26T14:12:44;1.60;;;1.02;;
12059;SDS011;6091;51.432;6.880;2023-01-26T14:17:58;3.88;;;2.13;;
12059;SDS011;6091;51.432;6.880;2023-01-26T14:20:28;6.07;;;5.43;;
12059;SDS011;6091;51.432;6.880;2023-01-26T14:23:14;7.15;;;5.00;;
12059;SDS011;6091;51.432;6.880;2023-01-26T14:25:45;4.80;;;3.95;;
12059;SDS011;6091;51.432;6.880;2023-01-26T14:28:55;4.28;;;3.35;;
12059;SDS011;6091;51.432;6.880;2023-01-26T14:31:26;5.88;;;2.70;;
12059;SDS011;6091;51.432;6.880;2023-01-26T14:33:58;3.38;;;2.92;;
12059;SDS011;6091;51.432;6.880;2023-01-26T14:36:28;2.45;;;2.25;;
12059;SDS011;6091;51.432;6.880;2023-01-26T14:39:17;3.63;;;2.13;;
12059;SDS011;6091;51.432;6.880;2023-01-26T14:41:46;5.03;;;2.47;;
12059;SDS011;6091;51.432;6.880;2023-01-26T14:44:15;4.88;;;2.25;;
12059;SDS011;6091;51.432;6.880;2023-01-26T14:46:59;4.10;;;2.30;;
12059;SDS011;6091;51.432;6.880;2023-01-26T14:49:47;4.30;;;1.95;;
12059;SDS011;6091;51.432;6.880;2023-01-26T14:52:34;2.38;;;1.85;;
12059;SDS011;6091;51.432;6.880;2023-01-26T14:57:44;2.85;;;2.10;;
12059;SDS011;6091;51.432;6.880;2023-01-26T15:00:17;5.75;;;1.73;;
12059;SDS011;6091;51.432;6.880;2023-01-26T15:02:54;3.30;;;1.63;;
12059;SDS011;6091;51.432;6.880;2023-01-26T15:05:34;2.00;;;1.48;;
12059;SDS011;6091;51.432;6.880;2023-01-26T15:08:17;4.25;;;2.13;;
12059;SDS011;6091;51.432;6.880;2023-01-26T15:11:00;3.63;;;1.70;;
12059;SDS011;6091;51.432;6.880;2023-01-26T15:13:48;1.92;;;1.58;;
12059;SDS011;6091;51.432;6.880;2023-01-26T15:16:22;2.40;;;1.67;;
12059;SDS011;6091;51.432;6.880;2023-01-26T15:18:58;3.28;;;1.55;;
12059;SDS011;6091;51.432;6.880;2023-01-26T15:21:30;2.73;;;1.90;;
12059;SDS011;6091;51.432;6.880;2023-01-26T15:24:04;2.90;;;1.90;;
12059;SDS011;6091;51.432;6.880;2023-01-26T15:26:39;4.10;;;1.63;;
12059;SDS011;6091;51.432;6.880;2023-01-26T15:29:16;2.40;;;1.60;;
12059;SDS011;6091;51.432;6.880;2023-01-26T15:31:58;1.90;;;1.50;;
12059;SDS011;6091;51.432;6.880;2023-01-26T15:34:36;2.42;;;1.48;;
12059;SDS011;6091;51.432;6.880;2023-01-26T15:39:56;2.00;;;1.30;;
12059;SDS011;6091;51.432;6.880;2023-01-26T15:42:24;2.03;;;1.45;;
12059;SDS011;6091;51.432;6.880;2023-01-26T15:44:56;1.70;;;1.15;;
12059;SDS011;6091;51.432;6.880;2023-01-26T15:47:24;6.82;;;2.05;;
12059;SDS011;6091;51.432;6.880;2023-01-26T15:49:51;2.83;;;1.60;;
12059;SDS011;6091;51.432;6.880;2023-01-26T15:52:19;2.10;;;1.40;;
12059;SDS011;6091;51.432;6.880;2023-01-26T15:54:50;4.78;;;1.40;;
12059;SDS011;6091;51.432;6.880;2023-01-26T15:57:19;3.30;;;1.50;;
12059;SDS011;6091;51.432;6.880;2023-01-26T15:59:46;4.88;;;1.45;;
12059;SDS011;6091;51.432;6.880;2023-01-26T16:02:14;4.82;;;1.70;;
12059;SDS011;6091;51.432;6.880;2023-01-26T16:04:47;1.40;;;1.25;;
12059;SDS011;6091;51.432;6.880;2023-01-26T16:07:15;5.03;;;1.60;;
12059;SDS011;6091;51.432;6.880;2023-01-26T16:09:43;2.05;;;1.40;;
12059;SDS011;6091;51.432;6.880;2023-01-26T16:12:11;2.83;;;1.40;;
12059;SDS011;6091;51.432;6.880;2023-01-26T16:14:59;5.00;;;1.50;;
12059;SDS011;6091;51.432;6.880;2023-01-26T16:17:26;1.98;;;1.20;;
12059;SDS011;6091;51.432;6.880;2023-01-26T16:19:53;3.72;;;1.17;;
12059;SDS011;6091;51.432;6.880;2023-01-26T16:22:20;1.30;;;1.20;;
12059;SDS011;6091;51.432;6.880;2023-01-26T16:24:47;1.70;;;1.20;;
12059;SDS011;6091;51.432;6.880;2023-01-26T16:27:14;2.00;;;1.13;;
12059;SDS011;6091;51.432;6.880;2023-01-26T16:29:41;1.77;;;1.00;;
12059;SDS011;6091;51.432;6.880;2023-01-26T16:32:10;1.33;;;1.00;;
12059;SDS011;6091;51.432;6.880;2023-01-26T16:35:07;2.83;;;1.13;;
12059;SDS011;6091;51.432;6.880;2023-01-26T16:37:37;2.53;;;1.10;;
12059;SDS011;6091;51.432;6.880;2023-01-26T16:40:08;1.20;;;0.90;;
12059;SDS011;6091;51.432;6.880;2023-01-26T16:42:39;1.30;;;1.20;;
12059;SDS011;6091;51.432;6.880;2023-01-26T16:45:14;4.53;;;1.10;;
12059;SDS011;6091;51.432;6.880;2023-01-26T16:47:44;3.08;;;1.20;;
12059;SDS011;6091;51.432;6.880;2023-01-26T16:50:17;1.48;;;1.00;;
12059;SDS011;6091;51.432;6.880;2023-01-26T16:52:45;2.60;;;1.13;;
12059;SDS011;6091;51.432;6.880;2023-01-26T16:55:13;0.93;;;0.88;;